Time;durP1;ratioP1;P1;durP2;ratioP2;P2;SDS_P1;SDS_P2;PMS_P1;PMS_P2;Temp;Humidity;BMP_temperature;BMP_pressure;BME280_temperature;BME280_humidity;BME280_pressure;Samples;Min_cycle;Max_cycle;Signal;HPM_P1;HPM_P2
2023/12/10 00:00:32;;;;;;;37.25;8.07;;;7.40;97.90;;;;;;5072795;28;20099;-60
2023/12/10 00:02:59;;;;;;;32.10;6.32;;;7.40;97.90;;;;;;5073757;28;20067;-60
2023/12/10 00:05:28;;;;;;;30.42;5.78;;;7.50;98.00;;;;;;5064479;28;20044;-59
2023/12/10 00:07:54;;;;;;;28.30;7.35;;;7.40;97.90;;;;;;5072748;28;20454;-60
2023/12/10 00:10:20;;;;;;;42.50;7.00;;;7.40;97.90;;;;;;5077226;28;20043;-60
2023/12/10 00:12:48;;;;;;;34.13;6.15;;;7.40;97.90;;;;;;5082871;28;20028;-59
2023/12/10 00:15:16;;;;;;;30.67;5.20;;;7.40;97.90;;;;;;5064464;28;20398;-59
2023/12/10 00:17:46;;;;;;;39.72;6.65;;;7.40;98.00;;;;;;5072218;28;20040;-59
2023/12/10 00:20:14;;;;;;;45.03;10.00;;;7.40;98.00;;;;;;5074745;28;20037;-58
2023/12/10 00:22:39;;;;;;;44.72;7.15;;;7.40;97.90;;;;;;5072113;28;20226;-58
2023/12/10 00:25:07;;;;;;;35.47;6.85;;;7.40;98.00;;;;;;5066252;28;20500;-58
2023/12/10 00:27:34;;;;;;;40.00;5.90;;;7.40;98.00;;;;;;5072814;28;20087;-58
2023/12/10 00:29:59;;;;;;;33.55;6.55;;;7.40;97.90;;;;;;5076429;28;20021;-58
2023/12/10 00:32:29;;;;;;;28.15;6.25;;;7.40;98.00;;;;;;5071710;28;20028;-58
2023/12/10 00:34:58;;;;;;;41.92;6.55;;;7.40;98.00;;;;;;5074333;28;20476;-55
2023/12/10 00:37:24;;;;;;;34.83;5.93;;;7.40;98.00;;;;;;5055209;28;20060;-56
2023/12/10 00:39:52;;;;;;;37.35;7.32;;;7.40;98.00;;;;;;5072591;28;20067;-57
2023/12/10 00:42:18;;;;;;;29.33;6.18;;;7.40;98.00;;;;;;5073198;28;20032;-58
2023/12/10 00:44:45;;;;;;;34.22;7.47;;;7.40;98.00;;;;;;5054906;28;20446;-56
2023/12/10 00:47:12;;;;;;;36.83;7.18;;;7.40;97.90;;;;;;5072539;28;20028;-57
2023/12/10 00:49:38;;;;;;;27.83;5.65;;;7.40;98.00;;;;;;5074368;28;20025;-57
2023/12/10 00:52:04;;;;;;;44.13;8.90;;;7.40;97.90;;;;;;5086871;28;20433;-53
2023/12/10 00:54:33;;;;;;;33.90;7.45;;;7.40;97.90;;;;;;5090554;28;20616;-53
2023/12/10 00:57:01;;;;;;;33.70;6.30;;;7.40;97.90;;;;;;5096625;28;20032;-57
2023/12/10 00:59:26;;;;;;;36.80;7.32;;;7.40;97.90;;;;;;5071182;28;20024;-55
2023/12/10 01:01:53;;;;;;;36.35;6.20;;;7.40;97.80;;;;;;5073601;28;20124;-53
2023/12/10 01:04:27;;;;;;;38.13;5.68;;;7.40;97.80;;;;;;5059510;28;20070;-53
2023/12/10 01:06:55;;;;;;;25.98;5.47;;;7.40;97.90;;;;;;5075745;28;20028;-53
2023/12/10 01:09:21;;;;;;;37.88;7.40;;;7.40;97.90;;;;;;5075791;28;20029;-55
2023/12/10 01:11:47;;;;;;;34.25;6.40;;;7.40;97.90;;;;;;5056948;28;20079;-53
2023/12/10 01:14:13;;;;;;;26.13;5.25;;;7.40;97.80;;;;;;5059719;28;20037;-55
2023/12/10 01:16:42;;;;;;;36.00;6.72;;;7.40;97.80;;;;;;5067695;28;20028;-55
2023/12/10 01:19:09;;;;;;;36.83;6.28;;;7.40;97.80;;;;;;5056021;28;20029;-56
2023/12/10 01:21:35;;;;;;;32.05;6.53;;;7.40;97.80;;;;;;5054011;28;20449;-53
2023/12/10 01:24:02;;;;;;;33.45;6.47;;;7.40;97.80;;;;;;5070697;28;20107;-56
2023/12/10 01:26:30;;;;;;;35.15;6.40;;;7.40;97.70;;;;;;5056468;28;20312;-51
2023/12/10 01:28:57;;;;;;;41.58;6.97;;;7.40;97.70;;;;;;5065584;28;20451;-48
2023/12/10 01:31:26;;;;;;;40.28;6.28;;;7.40;97.70;;;;;;5072687;28;20395;-54
2023/12/10 01:33:54;;;;;;;39.10;5.33;;;7.40;97.60;;;;;;5073293;28;20048;-53
2023/12/10 01:36:22;;;;;;;30.90;6.10;;;7.40;97.60;;;;;;5073093;28;20094;-50
2023/12/10 01:38:52;;;;;;;37.92;6.55;;;7.40;97.60;;;;;;5075407;28;20021;-54
2023/12/10 01:41:25;;;;;;;32.42;5.85;;;7.40;97.50;;;;;;5075439;28;20169;-52
2023/12/10 01:43:53;;;;;;;26.85;7.05;;;7.40;97.50;;;;;;5053164;28;20029;-49
2023/12/10 01:46:21;;;;;;;37.70;7.18;;;7.40;97.40;;;;;;5038140;28;20108;-55
2023/12/10 01:48:51;;;;;;;30.45;6.07;;;7.40;97.30;;;;;;5055759;28;20131;-47
2023/12/10 01:51:18;;;;;;;31.92;5.78;;;7.40;97.20;;;;;;5068509;28;20323;-51
2023/12/10 01:53:47;;;;;;;34.42;6.07;;;7.40;97.20;;;;;;5074697;28;20111;-51
2023/12/10 01:56:12;;;;;;;29.15;5.57;;;7.40;97.10;;;;;;5054506;28;20110;-53
2023/12/10 01:58:40;;;;;;;35.17;6.43;;;7.40;96.90;;;;;;5055244;28;20064;-52
2023/12/10 02:01:07;;;;;;;38.65;6.00;;;7.40;96.80;;;;;;5054988;28;20075;-53
2023/12/10 02:03:49;;;;;;;32.33;6.57;;;7.40;96.70;;;;;;5068970;28;20052;-50
2023/12/10 02:06:18;;;;;;;37.47;5.47;;;7.50;96.50;;;;;;5085998;28;20019;-50
2023/12/10 02:08:47;;;;;;;27.30;6.03;;;7.50;96.40;;;;;;5094477;28;20103;-53
2023/12/10 02:11:14;;;;;;;26.30;5.32;;;7.40;96.30;;;;;;5076916;28;20073;-52
2023/12/10 02:13:41;;;;;;;36.40;6.13;;;7.50;96.10;;;;;;5094608;28;20058;-48
2023/12/10 02:16:12;;;;;;;26.55;5.80;;;7.40;95.90;;;;;;5075344;28;20027;-53
2023/12/10 02:18:37;;;;;;;33.05;7.00;;;7.50;95.80;;;;;;5094729;28;20099;-48
2023/12/10 02:21:04;;;;;;;22.17;5.28;;;7.50;95.50;;;;;;5081981;28;20103;-46
2023/12/10 02:23:53;;;;;;;28.90;5.13;;;7.50;95.30;;;;;;5094207;28;20031;-51
2023/12/10 02:26:20;;;;;;;34.67;5.95;;;7.50;95.00;;;;;;5075480;28;20041;-52
2023/12/10 02:28:47;;;;;;;28.88;5.20;;;7.50;94.80;;;;;;5092804;28;20076;-52
2023/12/10 02:31:14;;;;;;;28.08;5.47;;;7.50;94.50;;;;;;5074292;28;20024;-47
2023/12/10 02:33:40;;;;;;;41.53;6.22;;;7.50;94.30;;;;;;5074710;28;20033;-51
2023/12/10 02:36:07;;;;;;;34.75;5.63;;;7.60;94.20;;;;;;5081361;28;20040;-53
2023/12/10 02:38:33;;;;;;;27.27;5.05;;;7.60;93.90;;;;;;5085316;28;20064;-46
2023/12/10 02:41:01;;;;;;;29.02;5.38;;;7.60;93.60;;;;;;5074263;28;20118;-52
2023/12/10 02:43:28;;;;;;;23.52;5.78;;;7.70;93.50;;;;;;5073844;28;20051;-46
2023/12/10 02:45:55;;;;;;;27.70;5.68;;;7.60;93.20;;;;;;5057307;28;20053;-53
2023/12/10 02:48:22;;;;;;;24.38;6.28;;;7.60;93.10;;;;;;5074276;28;20024;-49
2023/12/10 02:50:50;;;;;;;21.30;5.97;;;7.60;93.10;;;;;;5091916;28;20039;-53
2023/12/10 02:53:20;;;;;;;31.30;8.82;;;7.60;93.20;;;;;;5076304;28;20032;-50
2023/12/10 02:55:46;;;;;;;;;;;7.50;93.30;;;;;;5072748;28;20177;-55
2023/12/10 02:58:13;;;;;;;24.80;4.45;;;7.60;93.30;;;;;;5074710;28;19999;-56
2023/12/10 03:00:40;;;;;;;18.23;4.68;;;7.50;93.40;;;;;;5073835;28;20108;-59
2023/12/10 03:03:07;;;;;;;24.52;6.13;;;7.50;93.30;;;;;;5072570;28;20532;-62
2023/12/10 03:05:34;;;;;;;22.92;4.68;;;7.50;93.40;;;;;;5084933;28;20051;-61
2023/12/10 03:08:04;;;;;;;29.95;5.72;;;7.50;93.60;;;;;;5093770;28;20023;-62
2023/12/10 03:10:32;;;;;;;24.95;5.78;;;7.50;93.80;;;;;;5093763;28;20710;-62
2023/12/10 03:12:59;;;;;;;22.98;4.43;;;7.40;93.90;;;;;;5087320;28;20157;-62
2023/12/10 03:15:29;;;;;;;23.10;6.03;;;7.40;94.10;;;;;;5081679;28;20465;-62
2023/12/10 03:17:56;;;;;;;21.38;6.13;;;7.40;94.30;;;;;;5082496;28;20477;-62
2023/12/10 03:20:26;;;;;;;22.90;4.47;;;7.30;94.40;;;;;;5081874;28;20040;-62
2023/12/10 03:22:53;;;;;;;;;;;7.30;94.60;;;;;;5085377;28;20037;-62
2023/12/10 03:25:22;;;;;;;21.85;5.13;;;7.30;94.70;;;;;;5092713;28;19923;-62
2023/12/10 03:27:48;;;;;;;21.17;5.65;;;7.30;94.80;;;;;;5075259;28;20074;-63
2023/12/10 03:30:15;;;;;;;30.48;8.43;;;7.30;94.90;;;;;;5073187;28;20039;-63
2023/12/10 03:32:43;;;;;;;25.25;7.30;;;7.20;95.10;;;;;;5073158;28;20146;-62
2023/12/10 03:35:10;;;;;;;19.30;3.63;;;7.20;95.20;;;;;;5074103;28;20043;-62
2023/12/10 03:37:36;;;;;;;22.40;5.18;;;7.20;95.30;;;;;;5072947;28;20028;-62
2023/12/10 03:40:02;;;;;;;21.48;6.47;;;7.20;95.40;;;;;;5072816;28;20063;-62
2023/12/10 03:42:29;;;;;;;21.63;4.90;;;7.20;95.40;;;;;;5073013;28;20020;-62
2023/12/10 03:44:59;;;;;;;24.23;7.32;;;7.20;95.50;;;;;;5074015;28;20051;-62
2023/12/10 03:47:27;;;;;;;19.42;4.22;;;7.20;95.60;;;;;;5072848;28;20043;-62
2023/12/10 03:49:55;;;;;;;18.00;5.15;;;7.20;95.60;;;;;;5073097;28;20496;-62
2023/12/10 03:52:22;;;;;;;16.95;3.95;;;7.20;95.60;;;;;;5092577;28;20060;-62
2023/12/10 03:54:51;;;;;;;22.52;5.15;;;7.20;95.70;;;;;;5074924;28;20376;-62
2023/12/10 03:57:17;;;;;;;20.33;3.92;;;7.20;95.70;;;;;;5078150;28;20025;-62
2023/12/10 03:59:44;;;;;;;15.93;3.67;;;7.20;95.80;;;;;;5072691;28;20063;-62
2023/12/10 04:02:11;;;;;;;16.05;4.95;;;7.20;95.70;;;;;;5054649;28;20594;-62
2023/12/10 04:04:36;;;;;;;18.30;3.95;;;7.20;95.80;;;;;;5072969;28;20125;-63
2023/12/10 04:07:02;;;;;;;17.88;4.20;;;7.20;95.80;;;;;;5071487;28;20067;-62
2023/12/10 04:09:30;;;;;;;15.07;3.08;;;7.20;95.80;;;;;;5074665;28;20459;-61
2023/12/10 04:11:58;;;;;;;23.38;5.22;;;7.20;95.80;;;;;;5093020;28;20028;-62
2023/12/10 04:14:25;;;;;;;19.38;4.28;;;7.20;95.90;;;;;;5086053;28;20468;-61
2023/12/10 04:16:54;;;;;;;16.85;3.70;;;7.20;95.90;;;;;;5091556;28;20346;-61
2023/12/10 04:19:20;;;;;;;23.67;3.90;;;7.20;95.90;;;;;;5092572;28;20024;-61
2023/12/10 04:21:48;;;;;;;19.52;5.72;;;7.20;96.00;;;;;;5071016;28;20370;-61
2023/12/10 04:24:15;;;;;;;22.55;3.72;;;7.20;95.90;;;;;;5085247;28;20046;-60
2023/12/10 04:26:42;;;;;;;18.17;4.07;;;7.20;95.90;;;;;;5093502;28;20058;-60
2023/12/10 04:29:09;;;;;;;18.45;3.63;;;7.20;96.00;;;;;;5080002;28;20103;-59
2023/12/10 04:31:40;;;;;;;29.02;6.47;;;7.20;96.00;;;;;;5077130;28;20107;-59
2023/12/10 04:34:07;;;;;;;17.65;4.13;;;7.20;96.10;;;;;;5042563;28;20064;-60
2023/12/10 04:36:35;;;;;;;23.35;3.92;;;7.20;96.00;;;;;;5078102;28;20390;-59
2023/12/10 04:39:02;;;;;;;18.27;3.25;;;7.10;96.00;;;;;;5076858;28;20384;-57
2023/12/10 04:41:30;;;;;;;11.68;4.78;;;7.20;96.10;;;;;;5076424;28;20028;-58
2023/12/10 04:43:58;;;;;;;16.55;3.90;;;7.20;96.10;;;;;;5076110;28;20103;-56
2023/12/10 04:46:26;;;;;;;15.32;4.18;;;7.20;96.10;;;;;;5076504;28;20020;-58
2023/12/10 04:48:55;;;;;;;21.85;4.72;;;7.30;96.10;;;;;;5076243;28;20036;-57
2023/12/10 04:51:24;;;;;;;17.33;4.18;;;7.20;96.10;;;;;;5059628;28;20025;-57
2023/12/10 04:53:51;;;;;;;19.40;5.10;;;7.20;96.10;;;;;;5059610;28;20358;-56
2023/12/10 04:56:17;;;;;;;16.95;3.97;;;7.20;96.00;;;;;;5058727;28;20040;-57
2023/12/10 04:58:44;;;;;;;16.17;5.53;;;7.20;96.00;;;;;;5058554;28;20082;-60
2023/12/10 05:01:11;;;;;;;20.27;4.43;;;7.20;96.00;;;;;;5096257;28;20345;-58
2023/12/10 05:03:38;;;;;;;20.23;3.95;;;7.20;96.00;;;;;;5080905;28;20554;-59
2023/12/10 05:06:05;;;;;;;14.60;3.72;;;7.20;96.10;;;;;;5067550;28;20040;-58
2023/12/10 05:08:32;;;;;;;13.18;3.45;;;7.20;96.10;;;;;;5055854;28;20096;-61
2023/12/10 05:11:00;;;;;;;16.60;3.60;;;7.20;96.10;;;;;;5055857;28;20017;-62
2023/12/10 05:13:27;;;;;;;13.63;3.58;;;7.20;96.10;;;;;;5055912;28;20040;-62
2023/12/10 05:15:56;;;;;;;23.85;4.97;;;7.20;96.10;;;;;;5056359;28;20035;-62
2023/12/10 05:18:23;;;;;;;17.83;4.43;;;7.20;96.20;;;;;;5055679;28;20044;-62
2023/12/10 05:20:49;;;;;;;22.85;3.67;;;7.20;96.20;;;;;;5054970;28;20126;-62
2023/12/10 05:23:16;;;;;;;12.75;3.22;;;7.20;96.20;;;;;;5043915;28;20477;-62
2023/12/10 05:25:43;;;;;;;16.42;3.20;;;7.20;96.30;;;;;;5074958;28;20064;-62
2023/12/10 05:28:11;;;;;;;20.90;5.18;;;7.10;96.40;;;;;;5075614;28;20035;-62
2023/12/10 05:30:39;;;;;;;15.75;3.08;;;7.20;96.40;;;;;;5047759;28;20351;-62
2023/12/10 05:33:07;;;;;;;21.45;4.90;;;7.10;96.40;;;;;;5055390;28;20021;-63
2023/12/10 05:35:35;;;;;;;12.40;3.03;;;7.10;96.40;;;;;;5055728;28;20040;-63
2023/12/10 05:38:00;;;;;;;15.07;4.10;;;7.10;96.50;;;;;;5037910;28;20056;-63
2023/12/10 05:40:28;;;;;;;21.63;5.03;;;7.20;96.60;;;;;;5055650;28;20033;-63
2023/12/10 05:42:56;;;;;;;13.02;3.58;;;7.20;96.60;;;;;;5055156;28;20091;-61
2023/12/10 05:45:24;;;;;;;10.63;2.85;;;7.10;96.50;;;;;;5055310;28;20037;-61
2023/12/10 05:47:51;;;;;;;17.77;4.15;;;7.20;96.60;;;;;;5056177;28;20032;-61
2023/12/10 05:50:17;;;;;;;14.20;3.78;;;7.20;96.60;;;;;;5055030;28;20615;-61
2023/12/10 05:52:44;;;;;;;13.63;3.13;;;7.20;96.60;;;;;;5061308;28;20052;-61
2023/12/10 05:55:12;;;;;;;10.02;3.20;;;7.20;96.70;;;;;;5055096;28;20025;-61
2023/12/10 05:57:41;;;;;;;17.90;3.87;;;7.10;96.70;;;;;;5055383;28;20038;-61
2023/12/10 06:00:10;;;;;;;9.68;3.35;;;7.20;96.70;;;;;;5055773;28;20373;-61
2023/12/10 06:02:37;;;;;;;11.90;2.65;;;7.20;96.70;;;;;;5061255;28;20080;-62
2023/12/10 06:05:04;;;;;;;11.15;2.88;;;7.20;96.70;;;;;;5075333;28;20032;-62
2023/12/10 06:07:30;;;;;;;10.15;4.32;;;7.10;96.70;;;;;;5085176;28;20028;-62
2023/12/10 06:09:58;;;;;;;11.68;2.42;;;7.20;96.80;;;;;;5094993;28;20020;-62
2023/12/10 06:12:26;;;;;;;10.27;1.95;;;7.10;96.80;;;;;;5090628;28;20036;-62
2023/12/10 06:14:53;;;;;;;9.02;2.30;;;7.10;96.80;;;;;;5074929;28;20099;-63
2023/12/10 06:17:21;;;;;;;9.35;1.83;;;7.10;96.80;;;;;;5057556;28;20523;-63
2023/12/10 06:19:48;;;;;;;8.75;1.60;;;7.20;96.90;;;;;;5074665;28;20025;-63
2023/12/10 06:22:15;;;;;;;5.97;1.85;;;7.10;96.80;;;;;;5076023;28;20086;-63
2023/12/10 06:24:46;;;;;;;9.70;2.35;;;7.10;96.90;;;;;;5074274;28;20063;-63
2023/12/10 06:27:13;;;;;;;7.40;1.90;;;7.10;96.90;;;;;;5055517;28;20036;-63
2023/12/10 06:29:43;;;;;;;5.72;1.67;;;7.20;96.90;;;;;;5057290;28;20025;-61
2023/12/10 06:32:14;;;;;;;;;;;7.10;96.90;;;;;;5075263;28;20090;-62
2023/12/10 06:34:41;;;;;;;5.32;1.38;;;7.20;96.90;;;;;;5074530;28;19913;-61
2023/12/10 06:37:06;;;;;;;9.23;1.95;;;7.20;97.00;;;;;;5075765;28;20119;-62
2023/12/10 06:39:33;;;;;;;6.57;1.80;;;7.20;97.00;;;;;;5056303;28;20123;-63
2023/12/10 06:42:02;;;;;;;5.47;1.88;;;7.20;97.00;;;;;;5074192;28;20025;-63
2023/12/10 06:44:34;;;;;;;5.63;1.58;;;7.20;97.00;;;;;;5055874;28;20036;-63
2023/12/10 06:47:03;;;;;;;4.97;1.73;;;7.20;97.10;;;;;;5094373;28;20023;-62
2023/12/10 06:49:31;;;;;;;11.10;1.70;;;7.20;97.10;;;;;;5075068;28;20020;-62
2023/12/10 06:51:57;;;;;;;14.68;2.20;;;7.20;97.10;;;;;;5074271;28;20458;-62
2023/12/10 06:54:23;;;;;;;11.73;2.30;;;7.20;97.10;;;;;;5074639;28;20076;-62
2023/12/10 06:56:50;;;;;;;8.43;2.05;;;7.20;97.10;;;;;;5074359;28;20039;-62
2023/12/10 06:59:15;;;;;;;8.95;2.10;;;7.20;97.10;;;;;;5073786;28;20100;-62
2023/12/10 07:01:42;;;;;;;11.55;2.47;;;7.20;97.10;;;;;;5107122;28;20547;-62
2023/12/10 07:04:10;;;;;;;5.55;1.85;;;7.20;97.20;;;;;;5080258;28;20047;-62
2023/12/10 07:06:37;;;;;;;10.27;2.17;;;7.20;97.20;;;;;;5073734;28;20025;-62
2023/12/10 07:09:06;;;;;;;8.73;3.03;;;7.20;97.20;;;;;;5074821;28;20032;-62
2023/12/10 07:11:33;;;;;;;8.70;1.63;;;7.20;97.20;;;;;;5056889;28;20025;-61
2023/12/10 07:14:00;;;;;;;8.02;1.90;;;7.30;97.30;;;;;;5073592;28;20032;-62
2023/12/10 07:16:27;;;;;;;5.90;2.13;;;7.30;97.20;;;;;;5073153;28;20066;-63
2023/12/10 07:18:56;;;;;;;7.43;1.55;;;7.30;97.30;;;;;;5086173;28;20028;-62
2023/12/10 07:21:23;;;;;;;3.03;1.10;;;7.30;97.30;;;;;;5078767;28;20054;-62
2023/12/10 07:23:49;;;;;;;5.50;1.60;;;7.40;97.40;;;;;;5067766;28;20543;-62
2023/12/10 07:26:28;;;;;;;6.65;1.42;;;7.40;97.30;;;;;;5091976;28;20024;-62
2023/12/10 07:28:56;;;;;;;3.93;1.30;;;7.40;97.30;;;;;;5076155;28;20062;-62
2023/12/10 07:31:23;;;;;;;6.43;1.50;;;7.40;97.30;;;;;;5077593;28;20275;-62
2023/12/10 07:33:50;;;;;;;4.35;1.17;;;7.40;97.40;;;;;;5064587;28;20446;-63
2023/12/10 07:36:17;;;;;;;2.22;0.80;;;7.40;97.40;;;;;;5091977;28;20032;-62
2023/12/10 07:38:44;;;;;;;3.47;1.45;;;7.40;97.40;;;;;;5084743;28;20052;-62
2023/12/10 07:41:13;;;;;;;2.47;0.88;;;7.50;97.40;;;;;;5063693;28;20051;-62
2023/12/10 07:43:44;;;;;;;4.45;1.45;;;7.50;97.50;;;;;;5066404;28;20458;-62
2023/12/10 07:46:10;;;;;;;5.28;1.10;;;7.50;97.40;;;;;;5093037;28;20073;-62
2023/12/10 07:48:37;;;;;;;4.63;0.75;;;7.60;97.50;;;;;;5097966;28;20023;-62
2023/12/10 07:51:06;;;;;;;3.70;1.10;;;7.60;97.40;;;;;;5113032;28;20050;-62
2023/12/10 07:53:33;;;;;;;3.28;1.02;;;7.60;97.50;;;;;;5091551;28;20024;-62
2023/12/10 07:56:03;;;;;;;6.65;1.02;;;7.60;97.50;;;;;;5093179;28;20455;-62
2023/12/10 07:58:28;;;;;;;3.40;1.33;;;7.60;97.50;;;;;;5093141;28;20528;-62
2023/12/10 08:00:54;;;;;;;4.03;1.13;;;7.60;97.50;;;;;;5082619;28;20127;-63
2023/12/10 08:03:21;;;;;;;4.20;1.17;;;7.60;97.50;;;;;;5072530;28;20158;-62
2023/12/10 08:05:47;;;;;;;4.15;1.23;;;7.60;97.50;;;;;;5072745;28;20028;-62
2023/12/10 08:08:14;;;;;;;4.90;1.42;;;7.70;97.60;;;;;;5073490;28;20028;-62
2023/12/10 08:10:40;;;;;;;3.15;1.25;;;7.60;97.60;;;;;;5073501;28;20017;-62
2023/12/10 08:13:09;;;;;;;5.65;2.08;;;7.60;97.60;;;;;;5072963;28;20315;-62
2023/12/10 08:15:37;;;;;;;5.55;2.17;;;7.70;97.60;;;;;;5072905;28;20043;-62
2023/12/10 08:18:04;;;;;;;5.78;2.28;;;7.70;97.60;;;;;;5072572;28;20393;-62
2023/12/10 08:20:32;;;;;;;11.93;3.55;;;7.70;97.60;;;;;;5091066;28;20035;-61
2023/12/10 08:22:59;;;;;;;13.80;4.28;;;7.70;97.60;;;;;;5091155;28;20029;-61
2023/12/10 08:25:26;;;;;;;10.68;3.10;;;7.70;97.70;;;;;;5076908;28;20032;-61
2023/12/10 08:27:56;;;;;;;11.80;3.55;;;7.70;97.60;;;;;;5073208;28;20016;-60
2023/12/10 08:30:24;;;;;;;21.45;6.20;;;7.70;97.60;;;;;;5072591;28;20492;-61
2023/12/10 08:32:52;;;;;;;20.35;4.35;;;7.70;97.60;;;;;;5073649;28;20346;-60
2023/12/10 08:35:19;;;;;;;19.17;4.38;;;7.80;97.70;;;;;;5072278;28;20466;-60
2023/12/10 08:37:47;;;;;;;21.40;4.38;;;7.80;97.70;;;;;;5072547;28;20037;-59
2023/12/10 08:40:16;;;;;;;21.25;4.57;;;7.80;97.70;;;;;;5084367;28;20024;-59
2023/12/10 08:42:46;;;;;;;24.33;5.85;;;7.80;97.70;;;;;;5075341;28;20048;-57
2023/12/10 08:45:12;;;;;;;25.30;4.90;;;7.80;97.70;;;;;;5072209;28;20067;-58
2023/12/10 08:47:40;;;;;;;27.13;5.38;;;7.90;97.70;;;;;;5072381;28;20029;-58
2023/12/10 08:50:06;;;;;;;31.63;7.13;;;7.90;97.70;;;;;;5084597;28;20367;-58
2023/12/10 08:52:35;;;;;;;24.90;5.22;;;7.90;97.70;;;;;;5092769;28;20028;-58
2023/12/10 08:55:04;;;;;;;33.90;6.22;;;7.90;97.70;;;;;;5066001;28;20334;-56
2023/12/10 08:57:30;;;;;;;31.52;6.72;;;7.90;97.70;;;;;;5072258;28;20032;-57
2023/12/10 09:00:00;;;;;;;23.73;4.28;;;7.90;97.70;;;;;;5072235;28;20032;-58
2023/12/10 09:02:26;;;;;;;37.50;4.65;;;7.90;97.70;;;;;;5088274;28;20044;-62
2023/12/10 09:04:55;;;;;;;28.15;5.05;;;7.90;97.70;;;;;;5066411;28;20147;-63
2023/12/10 09:07:21;;;;;;;28.27;5.93;;;7.90;97.70;;;;;;5092377;28;20024;-64
2023/12/10 09:09:50;;;;;;;20.45;4.95;;;7.90;97.80;;;;;;5076102;28;20020;-63
2023/12/10 09:12:17;;;;;;;30.05;5.65;;;7.90;97.80;;;;;;5072109;28;20031;-63
2023/12/10 09:14:45;;;;;;;15.95;4.18;;;8.00;97.70;;;;;;5093543;28;20105;-63
2023/12/10 09:17:12;;;;;;;23.60;4.15;;;8.00;97.80;;;;;;5094648;28;20114;-63
2023/12/10 09:19:39;;;;;;;30.08;5.15;;;8.00;97.70;;;;;;5095907;28;20024;-62
2023/12/10 09:22:06;;;;;;;22.35;5.00;;;8.00;97.70;;;;;;5092977;28;20107;-63
2023/12/10 09:24:33;;;;;;;26.67;3.75;;;8.00;97.70;;;;;;5090239;28;20024;-62
2023/12/10 09:27:00;;;;;;;18.85;3.60;;;8.10;97.70;;;;;;5095976;28;20028;-62
2023/12/10 09:29:27;;;;;;;20.63;3.42;;;8.10;97.70;;;;;;5095885;28;20016;-61
2023/12/10 09:31:53;;;;;;;20.98;4.32;;;8.10;97.70;;;;;;5090499;28;20028;-61
2023/12/10 09:34:20;;;;;;;18.65;3.33;;;8.10;97.70;;;;;;5075474;28;20039;-61
2023/12/10 09:36:48;;;;;;;28.02;4.13;;;8.10;97.70;;;;;;5094033;28;20028;-62
2023/12/10 09:39:16;;;;;;;18.80;4.03;;;8.10;97.70;;;;;;5083368;28;20473;-63
2023/12/10 09:41:43;;;;;;;18.05;4.20;;;8.10;97.70;;;;;;5091876;28;20399;-63
2023/12/10 09:44:11;;;;;;;12.30;3.10;;;8.00;97.60;;;;;;5095431;28;20455;-62
2023/12/10 09:46:41;;;;;;;10.88;1.83;;;8.00;97.60;;;;;;5095421;28;20028;-61
2023/12/10 09:49:08;;;;;;;8.73;1.70;;;7.90;97.60;;;;;;5063709;28;20028;-61
2023/12/10 09:51:35;;;;;;;19.65;3.05;;;8.00;97.60;;;;;;5090458;28;20028;-60
2023/12/10 09:54:04;;;;;;;12.80;2.75;;;7.90;97.60;;;;;;5070689;28;20041;-60
2023/12/10 09:56:30;;;;;;;18.67;3.10;;;7.90;97.60;;;;;;5076575;28;20032;-59
2023/12/10 09:58:59;;;;;;;12.68;2.83;;;7.90;97.50;;;;;;5083346;28;20037;-59
2023/12/10 10:01:27;;;;;;;13.23;2.75;;;7.90;97.50;;;;;;5057270;28;20162;-58
2023/12/10 10:03:55;;;;;;;15.32;2.83;;;8.00;97.50;;;;;;5081288;28;20692;-58
2023/12/10 10:06:24;;;;;;;15.00;2.97;;;8.00;97.50;;;;;;5095242;28;20024;-58
2023/12/10 10:08:52;;;;;;;14.70;2.67;;;8.00;97.50;;;;;;5086829;28;20492;-58
2023/12/10 10:11:20;;;;;;;18.92;2.90;;;8.00;97.40;;;;;;5071482;28;20036;-57
2023/12/10 10:13:53;;;;;;;16.60;4.32;;;8.10;97.40;;;;;;5093340;28;20136;-57
2023/12/10 10:16:22;;;;;;;17.20;3.20;;;8.10;97.40;;;;;;5094829;28;20020;-57
2023/12/10 10:18:48;;;;;;;16.45;4.97;;;8.20;97.40;;;;;;5094799;28;20028;-55
2023/12/10 10:21:16;;;;;;;19.30;3.58;;;8.20;97.40;;;;;;5090643;28;20039;-56
2023/12/10 10:23:45;;;;;;;22.70;4.75;;;8.40;97.40;;;;;;5075457;28;20064;-56
2023/12/10 10:26:12;;;;;;;;;;;8.40;97.30;;;;;;5061377;28;20109;-56
2023/12/10 10:28:39;;;;;;;28.85;4.78;;;8.50;97.30;;;;;;5074795;28;19982;-55
2023/12/10 10:31:05;;;;;;;17.23;3.88;;;8.60;97.30;;;;;;5074301;28;20099;-55
2023/12/10 10:33:35;;;;;;;17.92;4.90;;;8.60;97.20;;;;;;5074498;28;20020;-52
2023/12/10 10:36:03;;;;;;;27.95;4.45;;;8.50;97.00;;;;;;5080560;28;20085;-55
2023/12/10 10:38:31;;;;;;;18.02;4.28;;;8.50;97.00;;;;;;5094207;28;20027;-54
2023/12/10 10:40:58;;;;;;;18.20;4.43;;;8.50;96.90;;;;;;5092645;28;20031;-54
2023/12/10 10:43:27;;;;;;;24.05;5.63;;;8.60;96.90;;;;;;5055877;28;20714;-47
2023/12/10 10:45:54;;;;;;;20.23;4.93;;;8.60;96.80;;;;;;5091873;28;20040;-48
2023/12/10 10:48:25;;;;;;;24.70;5.55;;;8.60;96.70;;;;;;5092683;28;20024;-50
2023/12/10 10:50:53;;;;;;;23.73;6.85;;;8.60;96.50;;;;;;5050696;28;20086;-47
2023/12/10 10:53:23;;;;;;;27.27;6.10;;;8.60;96.40;;;;;;5056429;28;20350;-47
2023/12/10 10:55:52;;;;;;;17.33;4.90;;;8.60;96.30;;;;;;5074000;28;20028;-47
2023/12/10 10:58:30;;;;;;;22.85;4.40;;;8.60;96.20;;;;;;5074094;28;20032;-50
2023/12/10 11:00:58;;;;;;;31.85;5.85;;;8.60;96.10;;;;;;5056327;28;20041;-46
2023/12/10 11:03:30;;;;;;;33.88;6.53;;;8.60;96.10;;;;;;5052720;28;20048;-46
2023/12/10 11:06:07;;;;;;;23.35;4.22;;;8.70;96.10;;;;;;5063492;28;20039;-46
2023/12/10 11:08:56;;;;;;;26.08;5.78;;;8.70;96.10;;;;;;5043850;28;20056;-48
2023/12/10 11:11:26;;;;;;;20.25;3.88;;;8.80;96.00;;;;;;5074496;28;20035;-46
2023/12/10 11:13:53;;;;;;;22.90;4.57;;;8.80;95.90;;;;;;5056198;28;20025;-47
2023/12/10 11:16:21;;;;;;;17.77;3.42;;;8.90;95.80;;;;;;5073497;28;20331;-49
2023/12/10 11:18:57;;;;;;;16.40;3.97;;;8.80;95.70;;;;;;5073427;28;20103;-50
2023/12/10 11:21:25;;;;;;;14.80;4.00;;;8.80;95.70;;;;;;5080395;28;20032;-47
2023/12/10 11:23:53;;;;;;;16.80;3.08;;;8.70;95.70;;;;;;5093391;28;20028;-50
2023/12/10 11:26:26;;;;;;;14.98;3.40;;;8.70;95.70;;;;;;5076149;28;20690;-47
2023/12/10 11:28:55;;;;;;;13.48;3.22;;;8.70;95.70;;;;;;5073769;28;20433;-50
2023/12/10 11:31:31;;;;;;;13.82;3.08;;;8.70;95.70;;;;;;5056137;28;20051;-49
2023/12/10 11:33:58;;;;;;;13.13;4.05;;;8.60;95.80;;;;;;5073132;28;20052;-59
2023/12/10 11:36:27;;;;;;;19.95;4.75;;;8.50;95.80;;;;;;5055819;28;20119;-61
2023/12/10 11:38:54;;;;;;;24.38;4.43;;;8.50;95.80;;;;;;5093385;28;20039;-61
2023/12/10 11:41:23;;;;;;;23.35;4.82;;;8.50;95.90;;;;;;5093409;28;20461;-60
2023/12/10 11:43:50;;;;;;;16.17;3.47;;;8.40;96.00;;;;;;5074113;28;20341;-59
2023/12/10 11:46:24;;;;;;;13.82;3.88;;;8.40;96.00;;;;;;5076592;28;20033;-57
2023/12/10 11:48:56;;;;;;;10.13;2.60;;;8.40;96.10;;;;;;5073327;28;20508;-60
2023/12/10 11:51:23;;;;;;;14.00;4.60;;;8.40;96.10;;;;;;5075791;28;20113;-62
2023/12/10 11:53:50;;;;;;;8.18;2.42;;;8.50;96.20;;;;;;5093082;28;20024;-62
2023/12/10 11:56:17;;;;;;;9.98;2.30;;;8.40;96.20;;;;;;5073534;28;20033;-61
2023/12/10 11:58:49;;;;;;;10.77;2.67;;;8.40;96.20;;;;;;5074346;28;20043;-61
2023/12/10 12:01:18;;;;;;;18.17;3.50;;;8.40;96.30;;;;;;5072924;28;20476;-61
2023/12/10 12:03:49;;;;;;;19.20;5.35;;;8.40;96.30;;;;;;5072934;28;20060;-61
2023/12/10 12:06:16;;;;;;;12.20;3.03;;;8.40;96.40;;;;;;5083703;28;20043;-62
2023/12/10 12:08:42;;;;;;;12.27;2.80;;;8.30;96.40;;;;;;5074711;28;20031;-62
2023/12/10 12:11:10;;;;;;;16.52;4.47;;;8.30;96.50;;;;;;5074940;28;20083;-63
2023/12/10 12:13:37;;;;;;;15.07;2.90;;;8.30;96.50;;;;;;5067121;28;20036;-63
2023/12/10 12:16:06;;;;;;;11.20;3.10;;;8.30;96.60;;;;;;5092710;28;20078;-63
2023/12/10 12:18:33;;;;;;;15.20;3.47;;;8.30;96.60;;;;;;5073261;28;20029;-63
2023/12/10 12:20:58;;;;;;;15.88;2.88;;;8.30;96.60;;;;;;5073603;28;20321;-63
2023/12/10 12:23:26;;;;;;;11.75;2.30;;;8.20;96.60;;;;;;5078587;28;20059;-63
2023/12/10 12:25:51;;;;;;;18.33;3.65;;;8.20;96.60;;;;;;5092791;28;20020;-61
2023/12/10 12:28:20;;;;;;;15.07;3.45;;;8.10;96.60;;;;;;5083668;28;20023;-61
2023/12/10 12:30:47;;;;;;;18.25;3.50;;;8.10;96.60;;;;;;5072712;28;20040;-61
2023/12/10 12:33:14;;;;;;;15.48;3.28;;;8.10;96.70;;;;;;5072402;28;20491;-60
2023/12/10 12:35:42;;;;;;;15.63;3.72;;;8.20;96.60;;;;;;5084387;28;20032;-59
2023/12/10 12:38:09;;;;;;;21.98;4.75;;;8.20;96.60;;;;;;5089509;28;20043;-59
2023/12/10 12:40:40;;;;;;;14.68;2.95;;;8.20;96.50;;;;;;5077978;28;20033;-56
2023/12/10 12:43:09;;;;;;;16.92;2.83;;;8.20;96.40;;;;;;5059448;28;20028;-56
2023/12/10 12:45:36;;;;;;;14.93;3.35;;;8.10;96.20;;;;;;5092367;28;20028;-55
2023/12/10 12:48:03;;;;;;;13.85;2.88;;;8.00;96.00;;;;;;5091690;28;20095;-54
2023/12/10 12:50:30;;;;;;;13.70;3.47;;;8.00;95.90;;;;;;5076497;28;20048;-54
2023/12/10 12:53:01;;;;;;;15.20;3.80;;;8.00;95.80;;;;;;5077889;28;20031;-54